Time;durP1;ratioP1;P1;durP2;ratioP2;P2;SDS_P1;SDS_P2;PMS_P1;PMS_P2;Temp;Humidity;BMP_temperature;BMP_pressure;BME280_temperature;BME280_humidity;BME280_pressure;Samples;Min_cycle;Max_cycle;Signal;HPM_P1;HPM_P2
2021/10/14 00:03:02;;;;;;;76.27;45.77;;;;;;;3.22;81.46;99455.08;2147527;82;21148;-81
2021/10/14 00:06:02;;;;;;;66.10;39.37;;;;;;;3.19;82.02;99456.69;2148158;83;20982;-80
2021/10/14 00:09:03;;;;;;;58.90;33.93;;;;;;;3.22;82.07;99458.94;2147983;82;20942;-81
2021/10/14 00:12:03;;;;;;;60.97;34.10;;;;;;;3.19;82.12;99462.25;2147505;83;20950;-80
2021/10/14 00:15:04;;;;;;;56.80;32.73;;;;;;;3.16;82.15;99456.53;2166540;82;21044;-82
2021/10/14 00:18:04;;;;;;;54.73;31.73;;;;;;;3.15;82.12;99460.33;2181241;82;20968;-81
2021/10/14 00:21:04;;;;;;;48.30;29.67;;;;;;;3.12;82.36;99460.17;2181627;82;20958;-82
2021/10/14 00:24:05;;;;;;;54.40;33.03;;;;;;;3.05;82.19;99465.42;2178176;81;21044;-81
2021/10/14 00:27:06;;;;;;;48.57;31.00;;;;;;;2.99;81.45;99470.27;2164926;82;20965;-81
2021/10/14 00:30:06;;;;;;;59.53;32.57;;;;;;;2.92;81.05;99464.31;2164984;82;20957;-81
2021/10/14 00:33:07;;;;;;;62.60;33.57;;;;;;;2.82;81.10;99464.24;2164216;82;21151;-81
2021/10/14 00:36:07;;;;;;;84.73;41.07;;;;;;;2.75;80.75;99461.27;2164129;82;20949;-81
2021/10/14 00:39:08;;;;;;;72.67;36.10;;;;;;;2.72;81.02;99467.55;2164070;82;20933;-81
2021/10/14 00:42:08;;;;;;;81.37;41.17;;;;;;;2.66;80.41;99469.41;2164301;82;21396;-81
2021/10/14 00:45:09;;;;;;;79.97;40.20;;;;;;;2.53;80.20;99465.26;2175280;82;20933;-81
2021/10/14 00:48:09;;;;;;;83.37;42.87;;;;;;;2.40;80.13;99465.41;2181735;82;20940;-81
2021/10/14 00:51:12;;;;;;;81.90;39.30;;;;;;;2.33;80.35;99464.59;2181630;82;21009;-81
2021/10/14 00:54:13;;;;;;;73.27;37.87;;;;;;;2.28;80.32;99472.88;2181383;82;21040;-81
2021/10/14 00:57:13;;;;;;;82.07;40.33;;;;;;;2.24;80.36;99470.54;2181759;82;20914;-81
2021/10/14 01:00:14;;;;;;;72.60;37.70;;;;;;;2.21;80.43;99468.68;2181633;82;20969;-82
2021/10/14 01:03:15;;;;;;;70.93;37.03;;;;;;;2.25;80.56;99467.16;2101062;85;20960;-81
2021/10/14 01:06:15;;;;;;;60.50;32.53;;;;;;;2.30;80.68;99469.98;2130806;84;20980;-81
2021/10/14 01:09:18;;;;;;;98.37;54.53;;;;;;;2.29;80.42;99474.25;2101090;85;20965;-82
2021/10/14 01:12:19;;;;;;;74.63;38.17;;;;;;;2.32;80.52;99460.25;2130846;84;20997;-82
2021/10/14 01:15:19;;;;;;;68.83;36.83;;;;;;;2.37;80.41;99463.06;2074299;85;21033;-82
2021/10/14 01:18:20;;;;;;;59.40;33.33;;;;;;;2.41;80.28;99465.89;2146859;83;20938;-82
2021/10/14 01:21:20;;;;;;;43.60;27.43;;;;;;;2.46;80.33;99463.16;2147063;83;20918;-81
2021/10/14 01:24:21;;;;;;;89.60;29.37;;;;;;;2.48;80.09;99467.99;2155077;82;21018;-81
2021/10/14 01:27:21;;;;;;;43.53;24.97;;;;;;;2.50;80.11;99470.25;2159425;82;21345;-81
2021/10/14 01:30:22;;;;;;;47.43;24.10;;;;;;;2.54;80.41;99470.89;2155442;82;20939;-82
2021/10/14 01:33:22;;;;;;;43.27;24.90;;;;;;;2.61;80.49;99467.39;2147147;82;20918;-82
2021/10/14 01:36:23;;;;;;;33.40;22.17;;;;;;;2.70;80.42;99469.16;2147022;82;20926;-82
2021/10/14 01:39:23;;;;;;;36.03;23.80;;;;;;;2.81;80.64;99471.49;2147058;83;20962;-82
2021/10/14 01:42:24;;;;;;;38.67;22.03;;;;;;;2.93;80.73;99471.64;2147057;82;21009;-81
2021/10/14 01:45:24;;;;;;;38.90;23.40;;;;;;;3.03;80.80;99476.47;2147045;82;20938;-82
2021/10/14 01:48:27;;;;;;;42.00;23.73;;;;;;;3.16;80.92;99472.02;2054721;87;20970;-81
2021/10/14 01:51:29;;;;;;;39.83;25.70;;;;;;;3.22;80.69;99473.13;2146989;82;21006;-81
2021/10/14 01:54:30;;;;;;;47.63;27.77;;;;;;;3.29;81.09;99472.23;2146817;82;20970;-82
2021/10/14 01:57:30;;;;;;;45.00;25.33;;;;;;;3.43;81.37;99472.92;2147194;82;21310;-81
2021/10/14 02:00:31;;;;;;;40.80;27.67;;;;;;;3.54;81.14;99471.78;2147024;83;20930;-81
2021/10/14 02:03:31;;;;;;;45.40;28.47;;;;;;;3.62;81.13;99479.50;2147119;83;20982;-82
2021/10/14 02:06:32;;;;;;;30.00;16.50;;;;;;;3.68;81.34;99473.75;2147363;82;20899;-80
2021/10/14 02:09:32;;;;;;;35.37;24.97;;;;;;;3.92;87.00;99474.94;2055121;87;20954;-79
2021/10/14 02:12:33;;;;;;;39.77;26.20;;;;;;;4.99;82.28;99476.88;2147741;82;20927;-81
2021/10/14 02:15:33;;;;;;;80.33;39.17;;;;;;;4.82;80.19;99477.84;2149687;82;21346;-80
2021/10/14 02:18:34;;;;;;;44.33;28.93;;;;;;;4.56;79.85;99480.96;2152675;83;21304;-80
2021/10/14 02:21:34;;;;;;;54.97;26.43;;;;;;;4.29;79.71;99477.55;2152351;83;20939;-81
2021/10/14 02:24:35;;;;;;;55.03;30.93;;;;;;;4.09;80.01;99485.66;2151971;83;21190;-81
2021/10/14 02:27:35;;;;;;;42.13;26.23;;;;;;;3.94;80.23;99484.05;2152072;83;20931;-81
2021/10/14 02:30:36;;;;;;;41.80;27.20;;;;;;;3.81;80.39;99486.05;2152254;83;20954;-81
2021/10/14 02:33:37;;;;;;;36.87;26.60;;;;;;;3.71;80.26;99485.12;2059487;87;21385;-81
2021/10/14 02:36:37;;;;;;;40.63;24.53;;;;;;;3.65;80.10;99490.38;2152169;82;20927;-81
2021/10/14 02:39:38;;;;;;;36.53;26.03;;;;;;;3.56;79.94;99489.93;2152001;83;21182;-81
2021/10/14 02:42:38;;;;;;;41.83;27.50;;;;;;;3.39;79.56;99485.19;2152049;83;21349;-81
2021/10/14 02:45:39;;;;;;;40.60;26.57;;;;;;;3.26;79.66;99488.84;2152202;83;21338;-81
2021/10/14 02:48:39;;;;;;;34.87;24.27;;;;;;;3.18;79.50;99494.91;2152141;83;21306;-80
2021/10/14 02:51:40;;;;;;;38.10;20.97;;;;;;;3.05;79.48;99496.38;2152069;83;20899;-81
2021/10/14 02:54:41;;;;;;;68.00;22.97;;;;;;;2.94;79.56;99497.92;2152074;83;20993;-81
2021/10/14 02:57:41;;;;;;;27.87;18.63;;;;;;;2.84;79.84;99496.15;2059921;87;20934;-82
2021/10/14 03:00:42;;;;;;;45.20;21.77;;;;;;;2.78;79.69;99500.09;2152464;82;20965;-80
2021/10/14 03:03:42;;;;;;;96.00;24.27;;;;;;;2.73;80.29;99493.81;2151966;83;21009;-80
2021/10/14 03:06:43;;;;;;;45.73;24.37;;;;;;;2.72;80.29;99503.64;2151246;83;20949;-81
2021/10/14 03:09:43;;;;;;;38.80;20.83;;;;;;;2.72;80.67;99508.80;2151332;83;20986;-83
2021/10/14 03:12:44;;;;;;;47.97;21.60;;;;;;;2.69;80.41;99505.66;2151632;83;20950;-81
2021/10/14 03:15:44;;;;;;;34.23;19.37;;;;;;;2.68;80.54;99503.88;2167550;82;21391;-81
2021/10/14 03:18:45;;;;;;;32.87;19.27;;;;;;;2.62;80.12;99516.84;2180903;82;21324;-80
2021/10/14 03:21:45;;;;;;;31.87;18.00;;;;;;;2.56;80.02;99515.67;2181647;82;20984;-80
2021/10/14 03:24:46;;;;;;;28.60;16.57;;;;;;;2.53;80.13;99518.48;2181385;82;21008;-79
2021/10/14 03:27:46;;;;;;;37.33;17.60;;;;;;;2.45;79.83;99520.66;2181295;82;20940;-80
2021/10/14 03:30:47;;;;;;;31.23;16.63;;;;;;;2.41;80.30;99519.11;2181360;82;20909;-81
2021/10/14 03:33:47;;;;;;;30.47;16.80;;;;;;;2.41;80.37;99517.83;2181469;82;20932;-81
2021/10/14 03:36:50;;;;;;;29.60;16.50;;;;;;;2.41;80.92;99520.41;2181643;82;21284;-81
2021/10/14 03:39:51;;;;;;;43.47;16.70;;;;;;;2.40;81.45;99529.83;2181487;82;21359;-80
2021/10/14 03:42:52;;;;;;;33.03;16.33;;;;;;;2.46;81.28;99532.73;2181819;82;20918;-81
2021/10/14 03:45:52;;;;;;;33.27;20.40;;;;;;;2.51;80.58;99532.58;2181021;82;20906;-81
2021/10/14 03:48:53;;;;;;;34.90;17.97;;;;;;;2.51;80.53;99531.30;2180982;82;21305;-80
2021/10/14 03:51:53;;;;;;;36.73;18.47;;;;;;;2.47;79.90;99535.80;2181189;82;21452;-81
2021/10/14 03:54:53;;;;;;;80.80;21.23;;;;;;;2.42;79.90;99535.06;2181192;82;21003;-80
2021/10/14 03:57:55;;;;;;;147.70;90.53;;;;;;;2.40;80.13;99536.27;2181943;82;20941;-78
2021/10/14 04:00:56;;;;;;;43.90;25.17;;;;;;;2.37;79.79;99532.63;2100552;85;21377;-79
2021/10/14 04:03:56;;;;;;;32.27;18.50;;;;;;;2.29;79.38;99536.48;2130190;84;20981;-79
2021/10/14 04:06:57;;;;;;;30.03;17.00;;;;;;;2.18;78.66;99530.73;2100015;85;20999;-79
2021/10/14 04:09:57;;;;;;;29.63;17.83;;;;;;;2.11;79.11;99534.66;2130349;84;20942;-79
2021/10/14 04:12:59;;;;;;;92.30;20.17;;;;;;;2.08;79.47;99538.34;2100414;85;21156;-79
2021/10/14 04:15:59;;;;;;;54.43;19.17;;;;;;;2.04;79.23;99540.27;2125512;84;21021;-79
2021/10/14 04:19:00;;;;;;;36.83;17.40;;;;;;;2.00;80.41;99540.89;2121732;84;21369;-79
2021/10/14 04:22:00;;;;;;;33.73;16.50;;;;;;;2.07;79.35;99543.02;2121550;84;20990;-79
2021/10/14 04:25:01;;;;;;;28.47;17.57;;;;;;;2.04;79.04;99542.84;2120519;84;21049;-79
2021/10/14 04:28:01;;;;;;;33.93;17.53;;;;;;;1.98;78.87;99540.32;2120331;84;20990;-79
2021/10/14 04:31:02;;;;;;;62.40;19.43;;;;;;;1.93;79.14;99537.48;2121550;84;21361;-79
2021/10/14 04:34:02;;;;;;;65.70;19.57;;;;;;;1.93;79.68;99536.20;2122295;84;21369;-80
2021/10/14 04:37:05;;;;;;;51.17;18.40;;;;;;;1.99;80.33;99549.82;2121266;84;20942;-78
2021/10/14 04:40:05;;;;;;;137.37;27.30;;;;;;;2.06;80.67;99556.69;2174461;82;20992;-79
2021/10/14 04:43:06;;;;;;;134.07;23.40;;;;;;;2.12;80.74;99545.45;2174331;82;21402;-79
2021/10/14 04:46:07;;;;;;;88.77;18.33;;;;;;;2.19;80.66;99551.83;2174719;82;21304;-79
2021/10/14 04:49:07;;;;;;;104.23;34.57;;;;;;;2.24;80.30;99550.39;2175135;82;20941;-78
2021/10/14 04:52:08;;;;;;;173.33;64.67;;;;;;;2.24;80.03;99552.97;2174523;82;20961;-78
2021/10/14 04:55:08;;;;;;;99.10;30.90;;;;;;;2.23;79.95;99554.66;2174183;82;21112;-78
2021/10/14 04:58:09;;;;;;;83.97;28.07;;;;;;;2.28;80.17;99557.89;2173915;82;20933;-78
2021/10/14 05:01:09;;;;;;;134.43;57.33;;;;;;;2.32;80.47;99562.01;2174240;82;20933;-78
2021/10/14 05:04:13;;;;;;;122.03;46.40;;;;;;;2.37;80.65;99561.86;2152795;82;21601;-80
2021/10/14 05:07:14;;;;;;;159.60;47.20;;;;;;;2.38;80.52;99564.92;2174412;82;21001;-79
2021/10/14 05:10:14;;;;;;;56.50;24.80;;;;;;;2.45;80.75;99563.57;2174470;82;20945;-80
2021/10/14 05:13:15;;;;;;;134.27;25.97;;;;;;;2.49;80.19;99577.11;2174795;82;20957;-81
2021/10/14 05:16:15;;;;;;;76.80;20.50;;;;;;;2.53;80.73;99569.63;2178797;82;21021;-81
2021/10/14 05:19:16;;;;;;;130.63;21.40;;;;;;;2.65;80.86;99582.33;2180193;82;20905;-81
2021/10/14 05:22:16;;;;;;;96.30;20.07;;;;;;;2.67;80.56;99587.58;2180508;82;20913;-82
2021/10/14 05:25:16;;;;;;;162.33;29.03;;;;;;;2.70;80.69;99584.77;2180509;82;21683;-81
2021/10/14 05:28:17;;;;;;;171.10;49.03;;;;;;;2.76;80.55;99593.23;2181284;82;20909;-79
2021/10/14 05:31:18;;;;;;;99.90;34.13;;;;;;;2.77;80.49;99589.45;2180380;82;20930;-81
2021/10/14 05:34:18;;;;;;;83.43;31.73;;;;;;;2.85;80.29;99597.59;2180702;82;20901;-80
2021/10/14 05:37:19;;;;;;;100.43;31.40;;;;;;;2.87;80.25;99591.72;2180314;82;20937;-81
2021/10/14 05:40:19;;;;;;;106.03;42.27;;;;;;;2.93;80.13;99598.89;2180500;82;21173;-81
2021/10/14 05:43:20;;;;;;;145.00;46.47;;;;;;;2.96;79.93;99597.77;2180450;82;21655;-80
2021/10/14 05:46:20;;;;;;;94.20;35.57;;;;;;;2.97;79.79;99597.36;2180175;82;21324;-81
2021/10/14 05:49:20;;;;;;;146.97;36.87;;;;;;;3.03;79.97;99602.85;2180520;82;20926;-81
2021/10/14 05:52:21;;;;;;;116.93;35.77;;;;;;;3.12;80.01;99590.44;2180596;82;20940;-81
2021/10/14 05:55:21;;;;;;;162.17;35.97;;;;;;;3.16;79.90;99591.97;2180337;82;21039;-81
2021/10/14 05:58:22;;;;;;;88.77;29.10;;;;;;;3.25;80.06;99602.30;2180593;82;20972;-81
2021/10/14 06:01:23;;;;;;;144.30;26.07;;;;;;;3.32;80.25;99601.80;2179784;82;20973;-82
2021/10/14 06:04:23;;;;;;;79.83;24.13;;;;;;;3.41;80.20;99598.41;2179641;82;20969;-82
2021/10/14 06:07:25;;;;;;;108.63;22.93;;;;;;;3.46;80.08;99592.69;2178750;82;20917;-80
2021/10/14 06:10:26;;;;;;;110.70;23.40;;;;;;;3.57;80.05;99598.83;2178888;82;20937;-80
2021/10/14 06:13:26;;;;;;;140.50;21.77;;;;;;;3.66;79.89;99600.19;2179270;82;20973;-81
2021/10/14 06:16:27;;;;;;;138.83;22.60;;;;;;;3.73;79.69;99593.64;2163818;82;21025;-81
2021/10/14 06:19:34;;;;;;;236.63;22.17;;;;;;;3.75;79.56;99601.05;2150366;83;21045;-80
2021/10/14 06:22:35;;;;;;;107.80;23.03;;;;;;;3.82;79.48;99603.14;2150600;83;21629;-80
2021/10/14 06:25:35;;;;;;;136.07;22.93;;;;;;;3.91;79.59;99597.14;2150494;83;20993;-82
2021/10/14 06:28:36;;;;;;;89.80;22.40;;;;;;;4.01;79.13;99595.91;2150156;83;20986;-83
2021/10/14 06:31:39;;;;;;;61.03;20.93;;;;;;;4.08;79.04;99595.39;2150421;83;20945;-83
2021/10/14 06:34:40;;;;;;;49.07;23.10;;;;;;;4.13;78.85;99592.22;2150794;83;21326;-83
2021/10/14 06:37:40;;;;;;;44.80;21.97;;;;;;;4.26;78.93;99595.00;2151345;83;20930;-81
2021/10/14 06:40:41;;;;;;;41.03;22.63;;;;;;;4.43;78.47;99594.55;2152293;83;20942;-82
2021/10/14 06:43:41;;;;;;;39.67;20.77;;;;;;;4.49;78.16;99590.97;2151787;83;20981;-82
2021/10/14 06:46:42;;;;;;;39.17;22.90;;;;;;;4.59;78.13;99592.28;2151213;83;20947;-81
2021/10/14 06:49:42;;;;;;;38.87;22.67;;;;;;;4.72;77.78;99591.64;2150160;83;20950;-82
2021/10/14 06:52:43;;;;;;;36.77;20.53;;;;;;;4.86;77.78;99590.98;2150589;83;20926;-80
2021/10/14 06:55:43;;;;;;;33.07;18.30;;;;;;;5.08;77.86;99584.67;2149867;83;21052;-81
2021/10/14 06:58:44;;;;;;;27.40;18.80;;;;;;;5.30;77.69;99594.73;2150649;83;20974;-81
2021/10/14 07:01:44;;;;;;;25.73;17.17;;;;;;;5.32;77.48;99586.62;2152208;83;21006;-80
2021/10/14 07:04:45;;;;;;;37.80;23.27;;;;;;;5.47;77.81;99589.87;2151067;83;20961;-80
2021/10/14 07:07:45;;;;;;;29.17;16.80;;;;;;;5.69;77.62;99587.81;2151211;83;20938;-81
2021/10/14 07:10:46;;;;;;;24.40;14.73;;;;;;;5.91;76.81;99594.81;2150703;83;21362;-81
2021/10/14 07:13:47;;;;;;;33.33;16.50;;;;;;;6.15;76.69;99591.98;2058744;87;20993;-81
2021/10/14 07:16:48;;;;;;;26.07;14.77;;;;;;;6.41;76.25;99592.16;2151233;82;20974;-81
2021/10/14 07:19:49;;;;;;;26.40;14.93;;;;;;;6.55;75.71;99589.69;2059570;87;20934;-81
2021/10/14 07:22:50;;;;;;;21.50;14.40;;;;;;;6.62;75.44;99589.99;2151356;82;20973;-80
2021/10/14 07:25:50;;;;;;;22.83;14.70;;;;;;;;;;2150026;83;21025;-82
2021/10/14 07:28:51;;;;;;;19.80;13.73;;;;;;;6.83;75.02;99593.83;2150687;83;21137;-80
2021/10/14 07:31:51;;;;;;;18.20;13.53;;;;;;;6.88;74.17;99588.81;2151663;83;20946;-82
2021/10/14 07:34:52;;;;;;;17.07;13.17;;;;;;;6.84;74.47;99591.70;2151866;83;20934;-82
2021/10/14 07:37:52;;;;;;;17.17;12.70;;;;;;;6.99;75.02;99587.13;2151468;83;20978;-80
2021/10/14 07:40:53;;;;;;;24.07;12.37;;;;;;;7.28;74.72;99586.03;2151010;83;20957;-81
2021/10/14 07:43:53;;;;;;;18.53;11.77;;;;;;;7.49;73.94;99584.63;2150994;83;21404;-81
2021/10/14 07:46:54;;;;;;;17.87;11.83;;;;;;;7.66;73.97;99586.98;2151456;83;21333;-80
2021/10/14 07:49:55;;;;;;;16.33;10.80;;;;;;;7.82;73.60;99580.63;2151820;83;20957;-81
2021/10/14 07:52:55;;;;;;;15.07;10.27;;;;;;;7.97;73.21;99582.87;2151875;83;20978;-80
2021/10/14 07:55:56;;;;;;;12.27;9.37;;;;;;;8.14;72.97;99580.83;2151295;83;21232;-80
2021/10/14 07:58:56;;;;;;;18.73;10.23;;;;;;;8.20;72.18;99582.33;2152215;83;20945;-80
2021/10/14 08:01:57;;;;;;;27.17;21.53;;;;;;;8.33;72.62;99590.12;2151211;83;20954;-81
2021/10/14 08:04:57;;;;;;;29.53;18.80;;;;;;;8.53;72.28;99598.18;2151173;83;21005;-82
2021/10/14 08:07:59;;;;;;;17.20;12.53;;;;;;;8.66;72.19;99600.75;2151737;83;21290;-82
2021/10/14 08:11:00;;;;;;;27.10;16.27;;;;;;;8.84;71.84;99599.63;2058592;87;20973;-81
2021/10/14 08:14:00;;;;;;;15.30;10.83;;;;;;;9.02;71.67;99601.91;2151001;82;21597;-83
2021/10/14 08:17:01;;;;;;;12.67;9.33;;;;;;;9.13;70.86;99607.44;2150401;82;20994;-81
2021/10/14 08:20:01;;;;;;;10.07;8.30;;;;;;;9.06;69.01;99607.67;2150286;83;20974;-82
2021/10/14 08:23:02;;;;;;;35.97;12.57;;;;;;;8.94;69.13;99604.28;2058043;87;21006;-81
2021/10/14 08:26:04;;;;;;;17.53;10.13;;;;;;;9.00;69.55;99602.28;2150723;83;21033;-83
2021/10/14 08:29:04;;;;;;;12.70;9.50;;;;;;;9.01;68.82;99607.07;2058643;87;20958;-84
2021/10/14 08:32:05;;;;;;;16.17;9.20;;;;;;;8.94;69.01;99611.21;2151080;83;20921;-82
2021/10/14 08:35:06;;;;;;;14.07;9.07;;;;;;;9.04;67.61;99608.05;2058574;87;21053;-81
2021/10/14 08:38:07;;;;;;;15.53;9.23;;;;;;;9.10;68.47;99609.95;2151958;83;21321;-82
2021/10/14 08:41:07;;;;;;;10.27;8.67;;;;;;;9.30;68.68;99612.72;2059096;87;21567;-82
2021/10/14 08:44:08;;;;;;;11.17;8.20;;;;;;;9.37;67.72;99609.45;2152062;83;20973;-83
2021/10/14 08:47:09;;;;;;;14.67;9.57;;;;;;;9.41;67.67;99604.80;2058762;87;20957;-83
2021/10/14 08:50:10;;;;;;;112.37;13.53;;;;;;;9.42;66.75;99601.34;2151795;82;20981;-81
2021/10/14 08:53:11;;;;;;;33.43;10.80;;;;;;;9.46;66.88;99608.83;2152056;83;20998;-83
2021/10/14 08:56:11;;;;;;;9.70;8.50;;;;;;;9.65;68.37;99608.53;2151645;83;20977;-82
2021/10/14 08:59:12;;;;;;;11.87;9.57;;;;;;;9.97;65.91;99609.41;2058762;86;20990;-81
2021/10/14 09:02:16;;;;;;;31.02;18.57;;;;;;;9.80;65.22;99602.44;2151226;82;20943;-82
2021/10/14 09:05:16;;;;;;;14.00;11.20;;;;;;;9.68;64.92;99605.13;2151404;83;20969;-82
2021/10/14 09:08:17;;;;;;;42.37;24.73;;;;;;;9.62;65.32;99599.33;2151490;83;21321;-82
2021/10/14 09:11:17;;;;;;;23.67;14.57;;;;;;;9.34;65.49;99605.88;2151040;83;21629;-83
2021/10/14 09:14:20;;;;;;;18.77;12.50;;;;;;;9.21;66.16;99610.73;2150955;83;20981;-83
2021/10/14 09:17:20;;;;;;;22.50;13.50;;;;;;;9.07;66.32;99611.16;2168221;82;21059;-82
2021/10/14 09:20:21;;;;;;;29.60;18.53;;;;;;;9.13;66.38;99607.44;2181029;82;20905;-83
2021/10/14 09:23:24;;;;;;;71.13;36.10;;;;;;;9.20;65.73;99611.98;2100482;85;20980;-83
2021/10/14 09:26:24;;;;;;;37.17;20.60;;;;;;;9.23;66.09;99604.27;2130001;84;21058;-82
2021/10/14 09:29:28;;;;;;;22.03;13.83;;;;;;;9.34;67.02;99610.67;2100154;85;20962;-81
2021/10/14 09:32:29;;;;;;;20.90;13.83;;;;;;;9.49;65.71;99609.80;2130384;84;20918;-82
2021/10/14 09:35:29;;;;;;;20.30;13.87;;;;;;;9.37;66.51;99609.45;2100607;85;21021;-83
2021/10/14 09:38:30;;;;;;;16.47;12.60;;;;;;;9.50;66.47;99610.69;2130768;84;20969;-84
2021/10/14 09:41:31;;;;;;;17.33;12.40;;;;;;;9.81;65.85;99605.92;2101052;85;20976;-83
2021/10/14 09:44:31;;;;;;;14.80;11.63;;;;;;;9.93;65.46;99604.06;2130238;84;21347;-82
2021/10/14 09:47:32;;;;;;;24.57;11.03;;;;;;;9.72;65.70;99606.98;2100352;85;20945;-80
2021/10/14 09:50:32;;;;;;;18.07;13.03;;;;;;;9.75;66.82;99599.24;2130004;84;20949;-81
2021/10/14 09:53:33;;;;;;;21.10;11.97;;;;;;;9.93;66.89;99593.62;2099910;85;20988;-81
2021/10/14 09:56:33;;;;;;;19.70;14.27;;;;;;;10.17;66.67;99592.53;2129203;84;20982;-81
2021/10/14 09:59:36;;;;;;;15.20;11.13;;;;;;;10.38;66.44;99590.91;2100285;85;21573;-82
2021/10/14 10:02:37;;;;;;;13.13;10.67;;;;;;;10.56;65.57;99577.45;2129327;84;21046;-80
2021/10/14 10:05:38;;;;;;;13.32;9.98;;;;;;;10.71;65.40;99579.53;2100541;85;20949;-83
2021/10/14 10:08:38;;;;;;;11.40;9.18;;;;;;;10.73;64.46;99573.50;2081001;85;20946;-82
2021/10/14 10:11:39;;;;;;;13.25;10.13;;;;;;;10.74;64.94;99566.13;2101548;85;20992;-84
2021/10/14 10:14:39;;;;;;;17.65;11.15;;;;;;;11.02;64.58;99569.34;2131074;84;21320;-82
2021/10/14 10:17:40;;;;;;;31.52;11.40;;;;;;;11.42;64.50;99565.42;2100966;85;21037;-83
2021/10/14 10:20:42;;;;;;;14.13;9.45;;;;;;;11.64;63.81;99558.00;2130583;84;20958;-82
2021/10/14 10:23:42;;;;;;;13.08;9.35;;;;;;;11.80;62.66;99552.23;2099696;85;20984;-82
2021/10/14 10:26:43;;;;;;;13.68;8.53;;;;;;;11.78;63.27;99557.86;2129756;83;21001;-82
2021/10/14 10:29:43;;;;;;;12.73;10.08;;;;;;;11.84;61.89;99552.73;2099990;85;20960;-81
2021/10/14 10:32:46;;;;;;;11.38;8.85;;;;;;;11.89;62.61;99551.51;2129976;84;20996;-81
2021/10/14 10:35:47;;;;;;;13.20;9.85;;;;;;;12.03;61.65;99541.73;2100076;85;20975;-81
2021/10/14 10:38:48;;;;;;;22.27;10.35;;;;;;;12.11;61.75;99539.25;2130441;84;21005;-80
2021/10/14 10:41:48;;;;;;;11.03;8.83;;;;;;;12.24;61.18;99532.09;2100799;85;20965;-82
2021/10/14 10:44:49;;;;;;;13.98;9.68;;;;;;;12.35;60.53;99528.33;2101127;85;20984;-81
2021/10/14 10:47:52;;;;;;;13.50;9.90;;;;;;;12.44;60.98;99523.23;2101270;85;20969;-80
2021/10/14 10:50:52;;;;;;;12.53;9.60;;;;;;;12.62;60.45;99523.93;2100787;85;21008;-80
2021/10/14 10:53:53;;;;;;;22.82;11.53;;;;;;;12.74;60.50;99521.05;2099908;85;21374;-81
2021/10/14 10:56:53;;;;;;;14.78;11.00;;;;;;;12.71;59.69;99511.84;2130928;84;21012;-82
2021/10/14 10:59:54;;;;;;;13.25;11.05;;;;;;;12.70;59.64;99517.94;2101597;85;20972;-81
2021/10/14 11:02:54;;;;;;;12.90;11.50;;;;;;;12.61;59.31;99521.73;2130759;84;20926;-82
2021/10/14 11:05:55;;;;;;;28.17;17.07;;;;;;;12.43;59.41;99520.16;2101324;85;20984;-79
2021/10/14 11:08:55;;;;;;;41.45;14.68;;;;;;;12.45;59.79;99514.52;2129306;84;20950;-83
2021/10/14 11:11:57;;;;;;;24.82;13.95;;;;;;;12.49;59.05;99522.87;2100670;85;20981;-82
2021/10/14 11:14:58;;;;;;;20.17;13.80;;;;;;;12.33;59.23;99518.27;2130005;84;21432;-81
2021/10/14 11:17:58;;;;;;;21.55;13.83;;;;;;;12.35;58.57;99520.47;2071225;85;21002;-80
2021/10/14 11:20:59;;;;;;;19.05;13.03;;;;;;;12.35;58.85;99521.78;2146749;82;20930;-83
2021/10/14 11:23:59;;;;;;;19.73;13.88;;;;;;;12.32;58.56;99526.54;2146469;83;21361;-81
2021/10/14 11:27:00;;;;;;;21.15;14.98;;;;;;;12.30;58.73;99523.45;2054157;87;21369;-82
2021/10/14 11:30:01;;;;;;;20.05;15.23;;;;;;;12.19;58.82;99517.16;2146002;82;21085;-82
2021/10/14 11:33:09;;;;;;;20.60;15.75;;;;;;;11.97;58.70;99508.92;2146276;83;20982;-82
2021/10/14 11:36:04;;;;;;;47.38;18.25;;;;;;;11.93;59.23;99505.80;2146028;83;20990;-80
2021/10/14 11:39:04;;;;;;;24.30;15.50;;;;;;;11.95;59.62;99508.02;2146297;83;20895;-81
2021/10/14 11:42:06;;;;;;;34.80;18.50;;;;;;;12.01;58.89;99512.48;2054219;87;20986;-80
2021/10/14 11:45:07;;;;;;;32.78;18.80;;;;;;;12.02;59.01;99501.16;2146863;83;20970;-82
2021/10/14 11:48:07;;;;;;;24.40;16.77;;;;;;;12.19;59.00;99498.41;2147531;82;21354;-81
2021/10/14 11:51:08;;;;;;;31.35;17.42;;;;;;;12.37;58.80;99487.34;2147157;82;20919;-81
2021/10/14 11:54:09;;;;;;;26.77;17.48;;;;;;;12.44;58.36;99485.27;2055423;87;20939;-81
2021/10/14 11:57:09;;;;;;;29.07;18.15;;;;;;;12.48;57.49;99485.76;2145481;82;21025;-80
2021/10/14 12:00:10;;;;;;;24.72;17.48;;;;;;;12.52;57.66;99483.64;2146299;83;20974;-81
2021/10/14 12:03:10;;;;;;;35.03;17.12;;;;;;;12.66;56.83;99483.83;2145718;83;21348;-80
2021/10/14 12:06:11;;;;;;;35.08;16.65;;;;;;;12.64;57.00;99479.00;2145842;83;21301;-82
2021/10/14 12:09:11;;;;;;;25.25;15.00;;;;;;;12.69;56.90;99469.46;2146346;83;20977;-82
2021/10/14 12:12:13;;;;;;;23.85;15.70;;;;;;;12.71;56.01;99473.86;2147252;82;20947;-83
2021/10/14 12:15:14;;;;;;;22.42;15.58;;;;;;;12.70;56.43;99469.91;2146675;83;20952;-82
2021/10/14 12:18:16;;;;;;;23.95;13.93;;;;;;;12.77;56.55;99467.82;2146672;82;20941;-82
2021/10/14 12:21:16;;;;;;;20.65;14.58;;;;;;;12.76;55.62;99469.56;2184369;82;20972;-82
2021/10/14 12:24:30;;;;;;;24.95;17.20;;;;;;;12.76;55.95;99463.02;2185470;82;20987;-81
2021/10/14 12:27:19;;;;;;;23.35;16.65;;;;;;;12.79;56.08;99465.22;2182912;82;21080;-80
2021/10/14 12:30:20;;;;;;;29.95;16.15;;;;;;;12.80;56.70;99461.74;2185708;82;21029;-84
2021/10/14 12:33:23;;;;;;;18.98;13.90;;;;;;;12.85;55.55;99456.12;2186244;82;20937;-82
2021/10/14 12:36:24;;;;;;;18.27;13.32;;;;;;;12.89;55.54;99451.38;2185572;82;20988;-83
2021/10/14 12:39:24;;;;;;;34.88;14.87;;;;;;;12.96;55.17;99445.34;2185283;82;21380;-82
2021/10/14 12:42:30;;;;;;;19.62;12.13;;;;;;;13.02;54.31;99450.69;2185313;82;20980;-81
2021/10/14 12:45:33;;;;;;;27.30;13.60;;;;;;;12.86;53.36;99434.30;2184995;82;21009;-81
2021/10/14 12:48:36;;;;;;;19.23;12.40;;;;;;;12.92;54.02;99439.19;2184045;82;20913;-81
2021/10/14 12:51:32;;;;;;;18.05;12.55;;;;;;;13.04;52.94;99430.63;2183410;82;20944;-80
2021/10/14 12:54:32;;;;;;;19.07;12.58;;;;;;;13.13;52.33;99428.10;2183914;82;20917;-80
2021/10/14 12:57:33;;;;;;;37.10;11.93;;;;;;;13.01;52.64;99423.61;2184111;82;20956;-80
2021/10/14 13:00:39;;;;;;;18.05;11.83;;;;;;;13.45;59.16;99427.58;2183605;82;21368;-79
2021/10/14 13:03:39;;;;;;;19.12;13.60;;;;;;;13.94;51.91;99422.35;2182899;82;20997;-80
2021/10/14 13:06:40;;;;;;;30.25;14.15;;;;;;;13.57;49.99;99422.02;2185031;82;20937;-81
2021/10/14 13:09:40;;;;;;;20.17;13.38;;;;;;;13.23;51.63;99428.69;2184890;82;20984;-80
2021/10/14 13:12:41;;;;;;;25.60;14.35;;;;;;;13.06;50.67;99434.14;2184845;82;20993;-81
2021/10/14 13:15:41;;;;;;;19.35;14.20;;;;;;;12.98;52.11;99434.45;2183189;82;21632;-80
2021/10/14 13:18:42;;;;;;;21.40;14.23;;;;;;;12.96;51.90;99434.86;2180725;82;21020;-81
2021/10/14 13:21:44;;;;;;;22.35;13.60;;;;;;;12.87;52.13;99422.97;2158545;82;20928;-81
2021/10/14 13:24:45;;;;;;;20.90;14.93;;;;;;;12.79;51.64;99420.26;2180550;82;20972;-81
2021/10/14 13:27:45;;;;;;;21.62;14.78;;;;;;;12.67;52.02;99418.80;2180511;82;21452;-82
2021/10/14 13:30:46;;;;;;;22.48;14.85;;;;;;;12.57;51.94;99416.49;2100027;85;20997;-83
2021/10/14 13:33:47;;;;;;;19.17;13.08;;;;;;;12.54;52.62;99406.41;2130301;84;20945;-83
2021/10/14 13:36:48;;;;;;;19.32;12.80;;;;;;;12.52;51.55;99401.16;2100999;85;20989;-82
2021/10/14 13:39:52;;;;;;;20.75;13.50;;;;;;;12.39;51.12;99398.80;2130385;84;21001;-83
2021/10/14 13:42:54;;;;;;;19.00;13.93;;;;;;;12.29;51.69;99385.14;2100401;85;21001;-81
2021/10/14 13:45:54;;;;;;;19.05;13.20;;;;;;;12.26;51.70;99384.22;2130444;84;20993;-82
2021/10/14 13:48:54;;;;;;;21.40;13.72;;;;;;;12.25;51.76;99381.15;2101155;85;20929;-81
2021/10/14 13:51:55;;;;;;;20.15;13.65;;;;;;;12.17;52.49;99377.55;2130517;84;20973;-82
2021/10/14 13:54:56;;;;;;;24.72;14.20;;;;;;;12.06;52.14;99379.98;2100508;85;20997;-82
2021/10/14 13:57:56;;;;;;;22.95;14.25;;;;;;;11.96;52.66;99371.55;2129825;84;21040;-81
2021/10/14 14:00:57;;;;;;;23.10;14.43;;;;;;;11.88;53.22;99371.87;2100358;85;21351;-81